MMIO

Plan De Guadalupe International Airport

Saltillo, Mexico
TAF MMIO 181727Z 1818/1918 23010KT P6SM SCT040 FM182100 02012KT P6SM BKN100 FM190300 34010KT P6SM BKN200
Issued Valid From Valid To
Jan-18 @ 17:27 UTC
(3 hours ago)
Jan-18 @ 18:00 UTC
(2 hours ago)
Jan-19 @ 18:00 UTC
(in 22 hours)
Jan-18 @ 18:00 to Jan-18 @ 21:00
TAF MMIO 181727Z 1818/1918 23010KT P6SM SCT040
Wind Visibility Clouds
230° at 10 knots Greater than 6 miles
  • Scattered at 4,000' AGL
From Jan-18 @ 21:00 to Jan-19 @ 03:00
FM182100 02012KT P6SM BKN100
Wind Visibility Clouds
20° at 12 knots Greater than 6 miles
  • Broken at 10,000' AGL
From Jan-19 @ 03:00 to Jan-19 @ 18:00
FM190300 34010KT P6SM BKN200
Wind Visibility Clouds
340° at 10 knots Greater than 6 miles
  • Broken at 20,000' AGL
TAF MMIO 181727Z 1818/1918 23010KT P6SM SCT040 FM182100 02012KT P6SM BKN100 FM190300 34010KT P6SM BKN200
Issued Jan-18 @ 17:27 UTC
(3 hours ago)
Valid From Jan-18 @ 18:00 UTC
(2 hours ago)
Valid To Jan-19 @ 18:00 UTC
(in 22 hours)
Jan-18 @ 18:00 - Jan-18 @ 21:00
Wind Visibility
230° at 10 knots Greater than 6 miles
Clouds
  • Scattered at 4,000' AGL
From Jan-18 @ 21:00 - Jan-19 @ 03:00
Wind Visibility
20° at 12 knots Greater than 6 miles
Clouds
  • Broken at 10,000' AGL
From Jan-19 @ 03:00 - Jan-19 @ 18:00
Wind Visibility
340° at 10 knots Greater than 6 miles
Clouds
  • Broken at 20,000' AGL